UKLR/RWN METAR and TAF weather

Enter ICAO airport designator
Station Type Date Time Source
UKLR METAR 2020/07/06 15:00 UTC NOAA

UKLR 061500Z VRB01MPS CAVOK 29/15 Q1007 NOSIG


Station Type Date Time Source
UKLR Decoded METAR 2020/07/06 15:00 UTC NOAA

Rivne, Ukraine (UKLR) 50-35N 026-08E
Jul 06, 2020 - 11:00 AM EDT / 2020.07.06 1500 UTC
Wind: Variable at 2 MPH (2 KT):0
Visibility: greater than 7 mile(s):0
Temperature: 84 F (29 C)
Dew Point: 59 F (15 C)
Relative Humidity: 42%
Pressure (altimeter): 29.74 in. Hg (1007 hPa)
ob: UKLR 061500Z VRB01MPS CAVOK 29/15 Q1007 NOSIG
cycle: 15

Station Type Date Time Source
UKLR TAF 2019/08/16 12:15 UTC NOAA

TAF TAF UKLR 161105Z 1612/1821 35003MPS 9999 BKN020 SCT023CB

Example: see airport list